CDG2105 ZSAM-ZUGY
Flight info
| Callsign | CDG2105 |
|---|---|
| Flight time | 1h 43m |
| Altitude | 32100 |
| Route | K0870S0980 NUSPA9Z NUSPA W598 DABER W155 VETIB DCT NUVGA DCT XEBUL DCT MABAG DCT WYN G586 QP B330 ELKAL ELKAL6W |
| Aircraft | B738/M-SDE2E3FGHIRWXY/LB1 |
Departure
| Time | 2026-05-06 04:40 |
|---|---|
| Airport | Xiamen Gaoqi International Airport (ZSAM) |
Arrival
| Time | 2026-05-06 06:23 |
|---|---|
| Airport | Guiyang Longdongbao International Airport (ZUGY) |
| Time | Latitude | Longitude | Altitude | Speed | Heading |
|---|---|---|---|---|---|
| 2026-05-06 04:15 | 24.54759 | 118.13953 | 46 ft | 0 kts | 53° |
| 2026-05-06 04:27 | 24.54751 | 118.13942 | 46 ft | 4 kts | 53° |
| 2026-05-06 04:27 | 24.54735 | 118.13918 | 46 ft | 3 kts | 53° |
| 2026-05-06 04:27 | 24.54721 | 118.13900 | 45 ft | 4 kts | 33° |
| 2026-05-06 04:27 | 24.54698 | 118.13893 | 44 ft | 4 kts | 342° |
| 2026-05-06 04:28 | 24.54679 | 118.13904 | 42 ft | 1 kts | 321° |
| 2026-05-06 04:28 | 24.54678 | 118.13904 | 42 ft | 1 kts | 321° |
| 2026-05-06 04:30 | 24.54685 | 118.13898 | 45 ft | 3 kts | 321° |
| 2026-05-06 04:31 | 24.54723 | 118.13865 | 44 ft | 10 kts | 321° |
| 2026-05-06 04:31 | 24.54784 | 118.13811 | 44 ft | 11 kts | 321° |
| 2026-05-06 04:31 | 24.54794 | 118.13802 | 46 ft | 0 kts | 321° |
| 2026-05-06 04:32 | 24.54802 | 118.13795 | 45 ft | 4 kts | 320° |
| 2026-05-06 04:32 | 24.54816 | 118.13753 | 47 ft | 8 kts | 255° |
| 2026-05-06 04:32 | 24.54782 | 118.13701 | 47 ft | 9 kts | 231° |
| 2026-05-06 04:32 | 24.54745 | 118.13649 | 44 ft | 8 kts | 232° |
| 2026-05-06 04:33 | 24.54708 | 118.13597 | 48 ft | 10 kts | 232° |
| 2026-05-06 04:33 | 24.54655 | 118.13522 | 49 ft | 15 kts | 232° |
| 2026-05-06 04:33 | 24.54580 | 118.13417 | 49 ft | 19 kts | 232° |
| 2026-05-06 04:33 | 24.54499 | 118.13300 | 48 ft | 19 kts | 233° |
| 2026-05-06 04:34 | 24.54442 | 118.13218 | 48 ft | 9 kts | 235° |
| 2026-05-06 04:34 | 24.54447 | 118.13156 | 49 ft | 9 kts | 303° |
| 2026-05-06 04:34 | 24.54443 | 118.13096 | 48 ft | 8 kts | 236° |
| 2026-05-06 04:34 | 24.54401 | 118.13039 | 49 ft | 11 kts | 232° |
| 2026-05-06 04:35 | 24.54345 | 118.12961 | 53 ft | 15 kts | 232° |
| 2026-05-06 04:35 | 24.54273 | 118.12859 | 52 ft | 18 kts | 232° |
| 2026-05-06 04:35 | 24.54188 | 118.12741 | 53 ft | 21 kts | 232° |
| 2026-05-06 04:35 | 24.54091 | 118.12605 | 51 ft | 24 kts | 232° |
| 2026-05-06 04:36 | 24.53989 | 118.12463 | 56 ft | 23 kts | 231° |
| 2026-05-06 04:36 | 24.53891 | 118.12327 | 57 ft | 22 kts | 232° |
| 2026-05-06 04:36 | 24.53797 | 118.12194 | 53 ft | 22 kts | 232° |
| 2026-05-06 04:36 | 24.53706 | 118.12066 | 53 ft | 21 kts | 232° |
| 2026-05-06 04:37 | 24.53617 | 118.11942 | 57 ft | 20 kts | 231° |
| 2026-05-06 04:37 | 24.53530 | 118.11821 | 55 ft | 20 kts | 232° |
| 2026-05-06 04:37 | 24.53457 | 118.11719 | 59 ft | 15 kts | 232° |
| 2026-05-06 04:37 | 24.53400 | 118.11630 | 62 ft | 12 kts | 249° |
| 2026-05-06 04:38 | 24.53408 | 118.11543 | 63 ft | 12 kts | 286° |
| 2026-05-06 04:38 | 24.53451 | 118.11477 | 58 ft | 9 kts | 325° |
| 2026-05-06 04:38 | 24.53492 | 118.11481 | 62 ft | 6 kts | 36° |
| 2026-05-06 04:38 | 24.53516 | 118.11514 | 64 ft | 6 kts | 52° |
| 2026-05-06 04:39 | 24.53552 | 118.11564 | 59 ft | 15 kts | 52° |
| 2026-05-06 04:39 | 24.53763 | 118.11858 | 53 ft | 84 kts | 51° |
| 2026-05-06 04:39 | 24.54264 | 118.12558 | 50 ft | 146 kts | 52° |
| 2026-05-06 04:39 | 24.54980 | 118.13549 | 284 ft | 177 kts | 51° |
| 2026-05-06 04:40 | 24.55739 | 118.14627 | 1075 ft | 175 kts | 52° |
| 2026-05-06 04:40 | 24.56491 | 118.15677 | 1868 ft | 176 kts | 52° |
| 2026-05-06 04:40 | 24.57238 | 118.16733 | 2672 ft | 173 kts | 51° |
| 2026-05-06 04:40 | 24.57987 | 118.17772 | 3346 ft | 179 kts | 50° |
| 2026-05-06 04:41 | 24.58812 | 118.18929 | 3690 ft | 205 kts | 50° |
| 2026-05-06 04:41 | 24.59715 | 118.20185 | 4239 ft | 209 kts | 50° |
| 2026-05-06 04:41 | 24.60627 | 118.21479 | 4738 ft | 218 kts | 50° |
| 2026-05-06 04:41 | 24.61568 | 118.22814 | 5249 ft | 224 kts | 53° |
| 2026-05-06 04:42 | 24.62205 | 118.24387 | 5800 ft | 229 kts | 80° |
| 2026-05-06 04:42 | 24.62151 | 118.26137 | 6355 ft | 232 kts | 107° |
| 2026-05-06 04:42 | 24.61416 | 118.27683 | 6866 ft | 233 kts | 134° |
| 2026-05-06 04:42 | 24.60142 | 118.28732 | 7430 ft | 229 kts | 161° |
| 2026-05-06 04:43 | 24.58606 | 118.29077 | 7961 ft | 225 kts | 186° |
| 2026-05-06 04:43 | 24.57113 | 118.28679 | 8509 ft | 221 kts | 211° |
| 2026-05-06 04:43 | 24.55898 | 118.27668 | 9078 ft | 218 kts | 229° |
| 2026-05-06 04:43 | 24.54928 | 118.26387 | 9630 ft | 220 kts | 234° |
| 2026-05-06 04:44 | 24.53996 | 118.25065 | 10159 ft | 222 kts | 234° |
| 2026-05-06 04:44 | 24.53033 | 118.23705 | 10651 ft | 224 kts | 234° |
| 2026-05-06 04:44 | 24.52063 | 118.22347 | 11137 ft | 227 kts | 234° |
| 2026-05-06 04:44 | 24.51081 | 118.20973 | 11597 ft | 232 kts | 234° |
| 2026-05-06 04:45 | 24.50060 | 118.19529 | 11721 ft | 252 kts | 234° |
| 2026-05-06 04:45 | 24.48952 | 118.17959 | 11927 ft | 269 kts | 234° |
| 2026-05-06 04:45 | 24.47752 | 118.16261 | 12063 ft | 292 kts | 233° |
| 2026-05-06 04:45 | 24.46462 | 118.14440 | 12235 ft | 313 kts | 233° |
| 2026-05-06 04:46 | 24.45079 | 118.12489 | 12389 ft | 334 kts | 233° |
| 2026-05-06 04:46 | 24.43610 | 118.10418 | 12516 ft | 352 kts | 233° |
| 2026-05-06 04:46 | 24.42069 | 118.08249 | 12652 ft | 369 kts | 233° |
| 2026-05-06 04:46 | 24.40466 | 118.05995 | 13001 ft | 378 kts | 233° |
| 2026-05-06 04:47 | 24.38843 | 118.03712 | 13500 ft | 382 kts | 233° |
| 2026-05-06 04:47 | 24.37204 | 118.01409 | 14018 ft | 383 kts | 233° |
| 2026-05-06 04:47 | 24.35557 | 117.99095 | 14509 ft | 385 kts | 233° |
| 2026-05-06 04:47 | 24.33906 | 117.96777 | 15020 ft | 386 kts | 233° |
| 2026-05-06 04:48 | 24.32255 | 117.94461 | 15486 ft | 388 kts | 233° |
| 2026-05-06 04:48 | 24.30578 | 117.92107 | 15928 ft | 392 kts | 233° |
| 2026-05-06 04:48 | 24.28893 | 117.89744 | 16347 ft | 395 kts | 233° |
| 2026-05-06 04:48 | 24.27195 | 117.87365 | 16763 ft | 398 kts | 233° |
| 2026-05-06 04:49 | 24.25482 | 117.84964 | 17192 ft | 401 kts | 233° |
| 2026-05-06 04:49 | 24.23692 | 117.82609 | 17590 ft | 405 kts | 228° |
| 2026-05-06 04:49 | 24.21694 | 117.80414 | 17991 ft | 408 kts | 225° |
| 2026-05-06 04:49 | 24.19645 | 117.78300 | 18361 ft | 411 kts | 225° |
| 2026-05-06 04:50 | 24.17554 | 117.76149 | 18692 ft | 414 kts | 225° |
| 2026-05-06 04:50 | 24.15468 | 117.73970 | 19044 ft | 415 kts | 225° |
| 2026-05-06 04:50 | 24.13388 | 117.71763 | 19399 ft | 417 kts | 226° |
| 2026-05-06 04:50 | 24.11308 | 117.69537 | 19744 ft | 419 kts | 226° |
| 2026-05-06 04:51 | 24.09216 | 117.67294 | 20072 ft | 422 kts | 226° |
| 2026-05-06 04:51 | 24.07274 | 117.64883 | 20360 ft | 423 kts | 239° |
| 2026-05-06 04:51 | 24.06127 | 117.61915 | 20689 ft | 423 kts | 256° |
| 2026-05-06 04:51 | 24.05761 | 117.58769 | 21021 ft | 424 kts | 272° |
| 2026-05-06 04:52 | 24.06053 | 117.55552 | 21360 ft | 425 kts | 277° |
| 2026-05-06 04:52 | 24.06459 | 117.52337 | 21646 ft | 428 kts | 278° |
| 2026-05-06 04:52 | 24.06886 | 117.49097 | 21941 ft | 431 kts | 278° |
| 2026-05-06 04:52 | 24.07312 | 117.45827 | 22242 ft | 433 kts | 278° |
| 2026-05-06 04:53 | 24.07720 | 117.42587 | 22559 ft | 435 kts | 277° |
| 2026-05-06 04:53 | 24.08123 | 117.39300 | 22873 ft | 437 kts | 277° |
| 2026-05-06 04:53 | 24.08520 | 117.35981 | 23148 ft | 439 kts | 277° |
| 2026-05-06 04:53 | 24.08913 | 117.32654 | 23423 ft | 441 kts | 277° |
| 2026-05-06 04:54 | 24.09306 | 117.29305 | 23684 ft | 444 kts | 277° |
| 2026-05-06 04:54 | 24.09693 | 117.25997 | 23943 ft | 445 kts | 277° |
| 2026-05-06 04:54 | 24.10089 | 117.22605 | 24232 ft | 445 kts | 277° |
| 2026-05-06 04:54 | 24.10478 | 117.19274 | 24494 ft | 446 kts | 277° |
| 2026-05-06 04:55 | 24.10871 | 117.15901 | 24746 ft | 447 kts | 277° |
| 2026-05-06 04:55 | 24.11264 | 117.12518 | 25034 ft | 447 kts | 277° |
| 2026-05-06 04:55 | 24.11653 | 117.09167 | 25306 ft | 447 kts | 277° |
| 2026-05-06 04:55 | 24.12047 | 117.05772 | 25544 ft | 448 kts | 277° |
| 2026-05-06 04:56 | 24.12439 | 117.02379 | 25760 ft | 450 kts | 277° |
| 2026-05-06 04:56 | 24.12833 | 116.98967 | 25990 ft | 451 kts | 277° |
| 2026-05-06 04:56 | 24.13227 | 116.95554 | 26231 ft | 452 kts | 277° |
| 2026-05-06 04:56 | 24.13616 | 116.92173 | 26456 ft | 453 kts | 277° |
| 2026-05-06 04:57 | 24.14010 | 116.88737 | 26680 ft | 454 kts | 277° |
| 2026-05-06 04:57 | 24.14374 | 116.85297 | 26888 ft | 455 kts | 275° |
| 2026-05-06 04:57 | 24.14583 | 116.81868 | 27150 ft | 455 kts | 273° |
| 2026-05-06 04:57 | 24.14714 | 116.78397 | 27381 ft | 455 kts | 272° |
| 2026-05-06 04:58 | 24.14820 | 116.74924 | 27600 ft | 456 kts | 272° |
| 2026-05-06 04:58 | 24.14927 | 116.71485 | 27871 ft | 455 kts | 272° |
| 2026-05-06 04:58 | 24.15046 | 116.68030 | 28199 ft | 453 kts | 273° |
| 2026-05-06 04:58 | 24.15175 | 116.64588 | 28548 ft | 451 kts | 273° |
| 2026-05-06 04:59 | 24.15310 | 116.61154 | 28879 ft | 449 kts | 273° |
| 2026-05-06 04:59 | 24.15446 | 116.57732 | 29193 ft | 448 kts | 273° |
| 2026-05-06 04:59 | 24.15582 | 116.54317 | 29512 ft | 447 kts | 273° |
| 2026-05-06 04:59 | 24.15715 | 116.50962 | 29840 ft | 446 kts | 273° |
| 2026-05-06 05:00 | 24.15848 | 116.47555 | 30151 ft | 444 kts | 273° |
| 2026-05-06 05:00 | 24.15977 | 116.44216 | 30441 ft | 443 kts | 273° |
| 2026-05-06 05:00 | 24.16138 | 116.40850 | 30760 ft | 440 kts | 275° |
| 2026-05-06 05:00 | 24.16375 | 116.37507 | 31077 ft | 438 kts | 276° |
| 2026-05-06 05:01 | 24.16642 | 116.34189 | 31382 ft | 436 kts | 276° |
| 2026-05-06 05:01 | 24.16912 | 116.30918 | 31671 ft | 435 kts | 276° |
| 2026-05-06 05:01 | 24.17180 | 116.27618 | 31972 ft | 433 kts | 276° |
| 2026-05-06 05:02 | 24.17695 | 116.20998 | 32092 ft | 439 kts | 275° |
| 2026-05-06 05:02 | 24.18197 | 116.14277 | 32096 ft | 445 kts | 275° |
| 2026-05-06 05:03 | 24.18695 | 116.07502 | 32092 ft | 449 kts | 275° |
| 2026-05-06 05:03 | 24.19192 | 116.00689 | 32083 ft | 452 kts | 275° |
| 2026-05-06 05:04 | 24.19693 | 115.93791 | 32088 ft | 454 kts | 275° |
| 2026-05-06 05:04 | 24.20193 | 115.86880 | 32083 ft | 455 kts | 275° |
| 2026-05-06 05:05 | 24.20686 | 115.80003 | 32084 ft | 455 kts | 275° |
| 2026-05-06 05:05 | 24.21177 | 115.73124 | 32085 ft | 455 kts | 275° |
| 2026-05-06 05:06 | 24.21668 | 115.66207 | 32081 ft | 454 kts | 275° |
| 2026-05-06 05:06 | 24.22151 | 115.59344 | 32089 ft | 453 kts | 275° |
| 2026-05-06 05:07 | 24.22634 | 115.52440 | 32089 ft | 453 kts | 275° |
| 2026-05-06 05:07 | 24.23111 | 115.45587 | 32092 ft | 452 kts | 275° |
| 2026-05-06 05:08 | 24.23653 | 115.38705 | 32081 ft | 452 kts | 276° |
| 2026-05-06 05:08 | 24.24268 | 115.31886 | 32089 ft | 452 kts | 276° |
| 2026-05-06 05:09 | 24.24882 | 115.25013 | 32093 ft | 452 kts | 275° |
| 2026-05-06 05:09 | 24.25476 | 115.18184 | 32090 ft | 452 kts | 275° |
| 2026-05-06 05:10 | 24.26063 | 115.11351 | 32087 ft | 452 kts | 275° |
| 2026-05-06 05:10 | 24.26651 | 115.04470 | 32091 ft | 452 kts | 275° |
| 2026-05-06 05:11 | 24.27232 | 114.97643 | 32083 ft | 452 kts | 275° |
| 2026-05-06 05:11 | 24.27814 | 114.90774 | 32085 ft | 452 kts | 275° |
| 2026-05-06 05:12 | 24.28395 | 114.83887 | 32085 ft | 452 kts | 275° |
| 2026-05-06 05:12 | 24.28893 | 114.78205 | 32084 ft | 452 kts | 275° |
| 2026-05-06 05:13 | 24.29602 | 114.70206 | 32089 ft | 452 kts | 275° |
| 2026-05-06 05:13 | 24.30203 | 114.63354 | 32086 ft | 452 kts | 275° |
| 2026-05-06 05:14 | 24.30800 | 114.56492 | 32097 ft | 452 kts | 275° |
| 2026-05-06 05:14 | 24.31392 | 114.49655 | 32092 ft | 452 kts | 275° |
| 2026-05-06 05:15 | 24.32037 | 114.42775 | 32089 ft | 452 kts | 276° |
| 2026-05-06 05:15 | 24.32583 | 114.37076 | 32097 ft | 452 kts | 276° |
| 2026-05-06 05:16 | 24.33230 | 114.30238 | 32089 ft | 453 kts | 276° |
| 2026-05-06 05:16 | 24.33978 | 114.22227 | 32093 ft | 453 kts | 275° |
| 2026-05-06 05:17 | 24.34510 | 114.16501 | 32085 ft | 453 kts | 275° |
| 2026-05-06 05:17 | 24.35149 | 114.09645 | 32093 ft | 453 kts | 276° |
| 2026-05-06 05:18 | 24.35863 | 114.02755 | 32089 ft | 453 kts | 276° |
| 2026-05-06 05:18 | 24.36594 | 113.95909 | 32086 ft | 453 kts | 276° |
| 2026-05-06 05:19 | 24.37312 | 113.89072 | 32091 ft | 453 kts | 276° |
| 2026-05-06 05:19 | 24.38025 | 113.82191 | 32083 ft | 453 kts | 276° |
| 2026-05-06 05:20 | 24.38733 | 113.75314 | 32082 ft | 453 kts | 276° |
| 2026-05-06 05:20 | 24.39437 | 113.68455 | 32086 ft | 453 kts | 276° |
| 2026-05-06 05:21 | 24.40135 | 113.61612 | 32088 ft | 454 kts | 276° |
| 2026-05-06 05:21 | 24.40837 | 113.54711 | 32075 ft | 455 kts | 276° |
| 2026-05-06 05:22 | 24.41536 | 113.47799 | 32080 ft | 454 kts | 276° |
| 2026-05-06 05:22 | 24.42229 | 113.40939 | 32076 ft | 454 kts | 276° |
| 2026-05-06 05:23 | 24.42948 | 113.34077 | 32081 ft | 455 kts | 276° |
| 2026-05-06 05:23 | 24.44040 | 113.23725 | 32079 ft | 455 kts | 276° |
| 2026-05-06 05:24 | 24.44762 | 113.16801 | 32079 ft | 455 kts | 276° |
| 2026-05-06 05:24 | 24.45474 | 113.09936 | 32081 ft | 455 kts | 276° |
| 2026-05-06 05:25 | 24.46189 | 113.03012 | 32080 ft | 455 kts | 276° |
| 2026-05-06 05:25 | 24.46874 | 112.96140 | 32077 ft | 455 kts | 276° |
| 2026-05-06 05:26 | 24.47547 | 112.89225 | 32082 ft | 455 kts | 276° |
| 2026-05-06 05:26 | 24.48217 | 112.82350 | 32083 ft | 454 kts | 276° |
| 2026-05-06 05:27 | 24.48891 | 112.75432 | 32079 ft | 455 kts | 276° |
| 2026-05-06 05:27 | 24.49561 | 112.68567 | 32074 ft | 455 kts | 276° |
| 2026-05-06 05:28 | 24.50240 | 112.61638 | 32074 ft | 455 kts | 276° |
| 2026-05-06 05:28 | 24.50911 | 112.54760 | 32074 ft | 455 kts | 276° |
| 2026-05-06 05:29 | 24.51584 | 112.47829 | 32065 ft | 455 kts | 276° |
| 2026-05-06 05:29 | 24.52247 | 112.40951 | 32059 ft | 456 kts | 276° |
| 2026-05-06 05:30 | 24.52914 | 112.33997 | 32071 ft | 455 kts | 276° |
| 2026-05-06 05:30 | 24.53571 | 112.27119 | 32066 ft | 456 kts | 276° |
| 2026-05-06 05:31 | 24.54231 | 112.20177 | 32079 ft | 456 kts | 276° |
| 2026-05-06 05:31 | 24.54887 | 112.13252 | 32076 ft | 457 kts | 276° |
| 2026-05-06 05:32 | 24.55539 | 112.06317 | 32072 ft | 457 kts | 276° |
| 2026-05-06 05:32 | 24.56192 | 111.99344 | 32072 ft | 458 kts | 276° |
| 2026-05-06 05:33 | 24.56838 | 111.92418 | 32066 ft | 458 kts | 276° |
| 2026-05-06 05:33 | 24.57484 | 111.85447 | 32062 ft | 458 kts | 276° |
| 2026-05-06 05:34 | 24.58123 | 111.78526 | 32063 ft | 457 kts | 276° |
| 2026-05-06 05:34 | 24.58762 | 111.71563 | 32062 ft | 457 kts | 276° |
| 2026-05-06 05:35 | 24.59399 | 111.64588 | 32069 ft | 457 kts | 276° |
| 2026-05-06 05:35 | 24.60028 | 111.57662 | 32066 ft | 457 kts | 275° |
| 2026-05-06 05:36 | 24.60656 | 111.50719 | 32055 ft | 457 kts | 275° |
| 2026-05-06 05:36 | 24.61283 | 111.43745 | 32052 ft | 457 kts | 275° |
| 2026-05-06 05:37 | 24.61903 | 111.36814 | 32050 ft | 457 kts | 275° |
| 2026-05-06 05:37 | 24.62523 | 111.29853 | 32049 ft | 457 kts | 275° |
| 2026-05-06 05:38 | 24.63133 | 111.22891 | 32050 ft | 457 kts | 275° |
| 2026-05-06 05:38 | 24.63734 | 111.15960 | 32057 ft | 457 kts | 275° |
| 2026-05-06 05:39 | 24.64332 | 111.09022 | 32042 ft | 456 kts | 276° |
| 2026-05-06 05:39 | 24.64932 | 111.02052 | 32038 ft | 456 kts | 276° |
| 2026-05-06 05:40 | 24.65523 | 110.95145 | 32043 ft | 456 kts | 275° |
| 2026-05-06 05:40 | 24.66112 | 110.88220 | 32040 ft | 456 kts | 275° |
| 2026-05-06 05:41 | 24.66879 | 110.81303 | 32021 ft | 456 kts | 285° |
| 2026-05-06 05:41 | 24.68023 | 110.78056 | 32049 ft | 455 kts | 296° |
| 2026-05-06 05:41 | 24.69651 | 110.75070 | 32032 ft | 457 kts | 305° |
| 2026-05-06 05:42 | 24.74077 | 110.70061 | 32028 ft | 459 kts | 315° |
| 2026-05-06 05:42 | 24.78758 | 110.65265 | 32037 ft | 459 kts | 315° |
| 2026-05-06 05:43 | 24.83369 | 110.60459 | 32024 ft | 458 kts | 314° |
| 2026-05-06 05:43 | 24.87982 | 110.55591 | 32016 ft | 458 kts | 314° |
| 2026-05-06 05:44 | 24.92554 | 110.50753 | 32018 ft | 457 kts | 314° |
| 2026-05-06 05:44 | 24.97143 | 110.45894 | 32021 ft | 457 kts | 314° |
| 2026-05-06 05:45 | 25.01704 | 110.41063 | 32020 ft | 457 kts | 314° |
| 2026-05-06 05:45 | 25.06314 | 110.36198 | 32018 ft | 457 kts | 314° |
| 2026-05-06 05:46 | 25.10889 | 110.31371 | 32015 ft | 457 kts | 314° |
| 2026-05-06 05:46 | 25.15489 | 110.26508 | 32017 ft | 457 kts | 314° |
| 2026-05-06 05:47 | 25.20057 | 110.21672 | 32013 ft | 456 kts | 314° |
| 2026-05-06 05:47 | 25.24640 | 110.16855 | 32009 ft | 456 kts | 314° |
| 2026-05-06 05:48 | 25.29264 | 110.12027 | 32012 ft | 456 kts | 314° |
| 2026-05-06 05:48 | 25.33842 | 110.07237 | 32016 ft | 456 kts | 314° |
| 2026-05-06 05:49 | 25.38442 | 110.02413 | 32019 ft | 456 kts | 314° |
| 2026-05-06 05:49 | 25.43047 | 109.97575 | 32014 ft | 456 kts | 314° |
| 2026-05-06 05:50 | 25.47621 | 109.92765 | 32031 ft | 456 kts | 314° |
| 2026-05-06 05:50 | 25.52224 | 109.87920 | 32018 ft | 455 kts | 314° |
| 2026-05-06 05:51 | 25.56815 | 109.83083 | 32024 ft | 454 kts | 314° |
| 2026-05-06 05:51 | 25.61366 | 109.78280 | 32006 ft | 454 kts | 314° |
| 2026-05-06 05:52 | 25.65935 | 109.73453 | 32002 ft | 454 kts | 314° |
| 2026-05-06 05:52 | 25.70502 | 109.68624 | 32007 ft | 454 kts | 314° |
| 2026-05-06 05:53 | 25.75013 | 109.63695 | 31988 ft | 452 kts | 307° |
| 2026-05-06 05:53 | 25.78334 | 109.57864 | 31993 ft | 448 kts | 294° |
| 2026-05-06 05:54 | 25.80341 | 109.51360 | 31998 ft | 447 kts | 285° |
| 2026-05-06 05:54 | 25.82040 | 109.44689 | 32004 ft | 448 kts | 285° |
| 2026-05-06 05:55 | 25.83750 | 109.38067 | 31994 ft | 447 kts | 285° |
| 2026-05-06 05:55 | 25.85476 | 109.31474 | 32006 ft | 446 kts | 285° |
| 2026-05-06 05:56 | 25.87216 | 109.24844 | 31987 ft | 446 kts | 285° |
| 2026-05-06 05:56 | 25.88950 | 109.18219 | 32005 ft | 445 kts | 285° |
| 2026-05-06 05:57 | 25.90667 | 109.11639 | 32005 ft | 446 kts | 285° |
| 2026-05-06 05:57 | 25.92392 | 109.05022 | 31993 ft | 446 kts | 285° |
| 2026-05-06 05:58 | 25.94123 | 108.98438 | 31987 ft | 446 kts | 285° |
| 2026-05-06 05:58 | 25.95880 | 108.91798 | 31994 ft | 447 kts | 285° |
| 2026-05-06 05:59 | 25.97625 | 108.85180 | 32004 ft | 446 kts | 285° |
| 2026-05-06 05:59 | 25.99358 | 108.78582 | 32015 ft | 447 kts | 285° |
| 2026-05-06 06:00 | 26.01107 | 108.71918 | 31995 ft | 447 kts | 285° |
| 2026-05-06 06:00 | 26.01961 | 108.68705 | 31986 ft | 429 kts | 285° |
| 2026-05-06 06:00 | 26.02812 | 108.65534 | 32013 ft | 427 kts | 285° |
| 2026-05-06 06:01 | 26.04529 | 108.59126 | 32020 ft | 436 kts | 285° |
| 2026-05-06 06:01 | 26.06255 | 108.52659 | 32009 ft | 443 kts | 285° |
| 2026-05-06 06:02 | 26.08015 | 108.46045 | 31869 ft | 450 kts | 285° |
| 2026-05-06 06:02 | 26.08913 | 108.42667 | 31343 ft | 455 kts | 285° |
| 2026-05-06 06:02 | 26.09781 | 108.39325 | 30880 ft | 452 kts | 282° |
| 2026-05-06 06:03 | 26.10356 | 108.35886 | 30416 ft | 451 kts | 277° |
| 2026-05-06 06:03 | 26.10750 | 108.32416 | 29968 ft | 454 kts | 276° |
| 2026-05-06 06:03 | 26.11099 | 108.28907 | 29435 ft | 455 kts | 276° |
| 2026-05-06 06:03 | 26.11449 | 108.25398 | 28917 ft | 457 kts | 276° |
| 2026-05-06 06:04 | 26.11821 | 108.21867 | 28418 ft | 459 kts | 276° |
| 2026-05-06 06:04 | 26.12206 | 108.18391 | 27883 ft | 460 kts | 277° |
| 2026-05-06 06:04 | 26.12612 | 108.14843 | 27336 ft | 461 kts | 277° |
| 2026-05-06 06:04 | 26.13020 | 108.11337 | 26796 ft | 454 kts | 277° |
| 2026-05-06 06:05 | 26.13424 | 108.07878 | 26271 ft | 447 kts | 277° |
| 2026-05-06 06:05 | 26.13820 | 108.04481 | 25761 ft | 443 kts | 277° |
| 2026-05-06 06:05 | 26.14215 | 108.01086 | 25258 ft | 442 kts | 277° |
| 2026-05-06 06:05 | 26.14608 | 107.97681 | 24752 ft | 441 kts | 277° |
| 2026-05-06 06:06 | 26.14994 | 107.94331 | 24250 ft | 441 kts | 277° |
| 2026-05-06 06:06 | 26.15383 | 107.90949 | 23757 ft | 440 kts | 277° |
| 2026-05-06 06:06 | 26.15939 | 107.87608 | 23193 ft | 441 kts | 286° |
| 2026-05-06 06:06 | 26.17089 | 107.84462 | 22634 ft | 440 kts | 295° |
| 2026-05-06 06:07 | 26.18637 | 107.81521 | 22038 ft | 435 kts | 302° |
| 2026-05-06 06:07 | 26.20535 | 107.78915 | 21475 ft | 430 kts | 310° |
| 2026-05-06 06:07 | 26.22506 | 107.76508 | 20941 ft | 424 kts | 310° |
| 2026-05-06 06:07 | 26.24491 | 107.74078 | 20388 ft | 422 kts | 309° |
| 2026-05-06 06:08 | 26.26456 | 107.71660 | 19929 ft | 417 kts | 309° |
| 2026-05-06 06:08 | 26.28333 | 107.69339 | 19481 ft | 413 kts | 309° |
| 2026-05-06 06:08 | 26.30302 | 107.66893 | 19013 ft | 409 kts | 309° |
| 2026-05-06 06:08 | 26.32173 | 107.64561 | 18581 ft | 406 kts | 308° |
| 2026-05-06 06:09 | 26.34052 | 107.62215 | 18130 ft | 403 kts | 308° |
| 2026-05-06 06:09 | 26.35914 | 107.59887 | 17625 ft | 400 kts | 308° |
| 2026-05-06 06:09 | 26.37762 | 107.57575 | 17117 ft | 398 kts | 308° |
| 2026-05-06 06:09 | 26.39592 | 107.55284 | 16635 ft | 396 kts | 308° |
| 2026-05-06 06:10 | 26.41420 | 107.52995 | 16153 ft | 394 kts | 308° |
| 2026-05-06 06:10 | 26.43218 | 107.50743 | 15668 ft | 392 kts | 308° |
| 2026-05-06 06:10 | 26.45029 | 107.48473 | 15215 ft | 390 kts | 308° |
| 2026-05-06 06:10 | 26.46828 | 107.46216 | 14752 ft | 388 kts | 308° |
| 2026-05-06 06:11 | 26.48625 | 107.43962 | 14288 ft | 386 kts | 308° |
| 2026-05-06 06:11 | 26.50407 | 107.41725 | 13832 ft | 384 kts | 308° |
| 2026-05-06 06:11 | 26.52175 | 107.39504 | 13329 ft | 381 kts | 308° |
| 2026-05-06 06:11 | 26.53912 | 107.37323 | 12826 ft | 378 kts | 308° |
| 2026-05-06 06:12 | 26.55641 | 107.35151 | 12318 ft | 372 kts | 308° |
| 2026-05-06 06:12 | 26.57354 | 107.32999 | 11819 ft | 366 kts | 308° |
| 2026-05-06 06:12 | 26.58488 | 107.31576 | 11487 ft | 363 kts | 308° |
| 2026-05-06 06:12 | 26.60697 | 107.28794 | 10878 ft | 357 kts | 307° |
| 2026-05-06 06:13 | 26.61789 | 107.27419 | 10565 ft | 354 kts | 307° |
| 2026-05-06 06:13 | 26.63416 | 107.25367 | 10116 ft | 352 kts | 308° |
| 2026-05-06 06:13 | 26.65023 | 107.23343 | 9881 ft | 342 kts | 307° |
| 2026-05-06 06:13 | 26.66579 | 107.21384 | 9622 ft | 333 kts | 307° |
| 2026-05-06 06:14 | 26.68092 | 107.19475 | 9377 ft | 328 kts | 307° |
| 2026-05-06 06:14 | 26.69382 | 107.17434 | 9092 ft | 314 kts | 288° |
| 2026-05-06 06:14 | 26.69910 | 107.15131 | 8865 ft | 302 kts | 277° |
| 2026-05-06 06:14 | 26.70298 | 107.12868 | 8622 ft | 296 kts | 277° |
| 2026-05-06 06:15 | 26.70683 | 107.10629 | 8359 ft | 291 kts | 277° |
| 2026-05-06 06:15 | 26.71072 | 107.08422 | 8121 ft | 286 kts | 277° |
| 2026-05-06 06:15 | 26.71462 | 107.06251 | 7890 ft | 282 kts | 277° |
| 2026-05-06 06:15 | 26.71853 | 107.04117 | 7633 ft | 275 kts | 277° |
| 2026-05-06 06:16 | 26.72235 | 107.02054 | 7421 ft | 268 kts | 277° |
| 2026-05-06 06:16 | 26.72619 | 107.00065 | 7206 ft | 259 kts | 277° |
| 2026-05-06 06:16 | 26.73015 | 106.98151 | 6978 ft | 248 kts | 277° |
| 2026-05-06 06:16 | 26.73401 | 106.96321 | 6869 ft | 235 kts | 277° |
| 2026-05-06 06:17 | 26.73755 | 106.94568 | 6881 ft | 231 kts | 277° |
| 2026-05-06 06:17 | 26.74115 | 106.92820 | 6880 ft | 229 kts | 277° |
| 2026-05-06 06:17 | 26.74435 | 106.91100 | 6853 ft | 219 kts | 269° |
| 2026-05-06 06:17 | 26.74564 | 106.89415 | 6875 ft | 225 kts | 268° |
| 2026-05-06 06:18 | 26.74647 | 106.87660 | 6879 ft | 222 kts | 263° |
| 2026-05-06 06:18 | 26.74361 | 106.86023 | 6891 ft | 210 kts | 251° |
| 2026-05-06 06:18 | 26.73771 | 106.84624 | 6857 ft | 190 kts | 220° |
| 2026-05-06 06:18 | 26.72607 | 106.84077 | 6901 ft | 183 kts | 194° |
| 2026-05-06 06:19 | 26.71403 | 106.83672 | 6833 ft | 182 kts | 201° |
| 2026-05-06 06:19 | 26.70161 | 106.83306 | 6607 ft | 184 kts | 193° |
| 2026-05-06 06:19 | 26.68938 | 106.83062 | 6399 ft | 179 kts | 192° |
| 2026-05-06 06:19 | 26.67710 | 106.82826 | 6180 ft | 173 kts | 192° |
| 2026-05-06 06:20 | 26.66546 | 106.82601 | 5951 ft | 166 kts | 192° |
| 2026-05-06 06:20 | 26.65450 | 106.82388 | 5738 ft | 155 kts | 193° |
| 2026-05-06 06:20 | 26.64417 | 106.82187 | 5565 ft | 148 kts | 193° |
| 2026-05-06 06:20 | 26.63411 | 106.81990 | 5409 ft | 146 kts | 194° |
| 2026-05-06 06:21 | 26.62407 | 106.81793 | 5212 ft | 151 kts | 193° |
| 2026-05-06 06:21 | 26.61366 | 106.81591 | 5007 ft | 153 kts | 193° |
| 2026-05-06 06:21 | 26.60313 | 106.81385 | 4840 ft | 152 kts | 193° |
| 2026-05-06 06:21 | 26.59265 | 106.81179 | 4622 ft | 149 kts | 192° |
| 2026-05-06 06:22 | 26.58267 | 106.80982 | 4450 ft | 144 kts | 191° |
| 2026-05-06 06:22 | 26.57280 | 106.80795 | 4139 ft | 147 kts | 190° |
| 2026-05-06 06:22 | 26.56224 | 106.80586 | 3948 ft | 157 kts | 191° |
| 2026-05-06 06:22 | 26.55131 | 106.80372 | 3770 ft | 163 kts | 192° |
| 2026-05-06 06:23 | 26.54108 | 106.80171 | 3741 ft | 127 kts | 189° |
| 2026-05-06 06:23 | 26.53443 | 106.80043 | 3743 ft | 67 kts | 190° |
| 2026-05-06 06:23 | 26.53200 | 106.79982 | 3744 ft | 19 kts | 206° |
| 2026-05-06 06:23 | 26.53092 | 106.79907 | 3745 ft | 18 kts | 219° |
| 2026-05-06 06:24 | 26.53038 | 106.79847 | 3744 ft | 9 kts | 248° |
| 2026-05-06 06:24 | 26.53044 | 106.79801 | 3743 ft | 6 kts | 302° |
| 2026-05-06 06:24 | 26.53081 | 106.79785 | 3743 ft | 6 kts | 5° |
| 2026-05-06 06:24 | 26.53122 | 106.79792 | 3743 ft | 6 kts | 9° |
| 2026-05-06 06:25 | 26.53164 | 106.79800 | 3743 ft | 7 kts | 10° |
| 2026-05-06 06:25 | 26.53236 | 106.79815 | 3743 ft | 14 kts | 10° |
| 2026-05-06 06:25 | 26.53503 | 106.79866 | 3742 ft | 21 kts | 9° |
| 2026-05-06 06:26 | 26.53648 | 106.79894 | 3742 ft | 21 kts | 10° |
| 2026-05-06 06:26 | 26.53789 | 106.79921 | 3741 ft | 20 kts | 10° |
| 2026-05-06 06:26 | 26.53925 | 106.79948 | 3741 ft | 20 kts | 10° |
| 2026-05-06 06:26 | 26.54057 | 106.79974 | 3741 ft | 19 kts | 9° |
| 2026-05-06 06:27 | 26.54185 | 106.79999 | 3741 ft | 18 kts | 10° |
| 2026-05-06 06:27 | 26.54310 | 106.80023 | 3741 ft | 19 kts | 10° |
| 2026-05-06 06:27 | 26.54451 | 106.80050 | 3741 ft | 22 kts | 9° |
| 2026-05-06 06:27 | 26.54604 | 106.80079 | 3740 ft | 22 kts | 9° |
| 2026-05-06 06:28 | 26.54748 | 106.80108 | 3740 ft | 21 kts | 10° |
| 2026-05-06 06:28 | 26.54890 | 106.80135 | 3740 ft | 20 kts | 9° |
| 2026-05-06 06:28 | 26.55028 | 106.80161 | 3739 ft | 20 kts | 9° |
| 2026-05-06 06:28 | 26.55161 | 106.80188 | 3738 ft | 19 kts | 12° |
| 2026-05-06 06:29 | 26.55290 | 106.80213 | 3738 ft | 19 kts | 9° |
| 2026-05-06 06:29 | 26.55415 | 106.80236 | 3738 ft | 18 kts | 10° |
| 2026-05-06 06:29 | 26.55487 | 106.80251 | 3738 ft | 8 kts | 7° |
| 2026-05-06 06:29 | 26.55530 | 106.80218 | 3737 ft | 8 kts | 294° |
| 2026-05-06 06:30 | 26.55549 | 106.80161 | 3737 ft | 8 kts | 285° |
| 2026-05-06 06:30 | 26.55558 | 106.80121 | 3737 ft | 5 kts | 283° |
| 2026-05-06 06:30 | 26.55564 | 106.80083 | 3737 ft | 5 kts | 279° |
| 2026-05-06 06:30 | 26.55572 | 106.80045 | 3737 ft | 5 kts | 296° |
| 2026-05-06 06:31 | 26.55602 | 106.80030 | 3737 ft | 5 kts | 2° |
| 2026-05-06 06:31 | 26.55635 | 106.80036 | 3737 ft | 5 kts | 10° |
| 2026-05-06 06:31 | 26.55668 | 106.80044 | 3737 ft | 5 kts | 11° |
| 2026-05-06 06:31 | 26.55680 | 106.80046 | 3737 ft | 0 kts | 11° |
| 2026-05-06 06:32 | 26.55686 | 106.80048 | 3737 ft | 0 kts | 11° |